RPA4494 KRDU-KPIT
Flight info
| Callsign | RPA4494 |
|---|---|
| Flight time | 1h 3m |
| Altitude | 31000 |
| Route | LWOOD5 DBRAH RICCS LEJOY DEMME5 |
| Aircraft | E75L/M-SDE3GILORVW/S |
Departure
| Time | 2026-05-07 02:15 |
|---|---|
| Airport | Raleigh-Durham International Airport (KRDU) |
Arrival
| Time | 2026-05-07 03:18 |
|---|---|
| Airport | Pittsburgh International Airport (KPIT) |
| Time | Latitude | Longitude | Altitude | Speed | Heading |
|---|---|---|---|---|---|
| 2026-05-07 01:54 | 35.87920 | -78.79070 | 424 ft | 0 kts | 296° |
| 2026-05-07 02:02 | 35.87914 | -78.79046 | 419 ft | 4 kts | 291° |
| 2026-05-07 02:02 | 35.87898 | -78.79028 | 422 ft | 4 kts | 350° |
| 2026-05-07 02:02 | 35.87880 | -78.79041 | 424 ft | 3 kts | 45° |
| 2026-05-07 02:03 | 35.87867 | -78.79057 | 415 ft | 0 kts | 45° |
| 2026-05-07 02:04 | 35.87867 | -78.79056 | 420 ft | 0 kts | 45° |
| 2026-05-07 02:05 | 35.87870 | -78.79054 | 421 ft | 2 kts | 45° |
| 2026-05-07 02:05 | 35.87878 | -78.79043 | 420 ft | 0 kts | 45° |
| 2026-05-07 02:05 | 35.87881 | -78.79039 | 422 ft | 3 kts | 45° |
| 2026-05-07 02:06 | 35.87905 | -78.79010 | 421 ft | 7 kts | 45° |
| 2026-05-07 02:06 | 35.87952 | -78.78967 | 422 ft | 9 kts | 31° |
| 2026-05-07 02:06 | 35.88013 | -78.78968 | 424 ft | 10 kts | 323° |
| 2026-05-07 02:06 | 35.88068 | -78.79035 | 421 ft | 12 kts | 316° |
| 2026-05-07 02:07 | 35.88129 | -78.79054 | 417 ft | 7 kts | 38° |
| 2026-05-07 02:07 | 35.88245 | -78.78912 | 421 ft | 17 kts | 45° |
| 2026-05-07 02:07 | 35.88336 | -78.78798 | 418 ft | 20 kts | 44° |
| 2026-05-07 02:08 | 35.88436 | -78.78673 | 419 ft | 20 kts | 45° |
| 2026-05-07 02:08 | 35.88530 | -78.78559 | 421 ft | 18 kts | 45° |
| 2026-05-07 02:08 | 35.88625 | -78.78441 | 424 ft | 20 kts | 45° |
| 2026-05-07 02:08 | 35.88711 | -78.78335 | 418 ft | 17 kts | 45° |
| 2026-05-07 02:09 | 35.88801 | -78.78225 | 424 ft | 19 kts | 45° |
| 2026-05-07 02:09 | 35.88898 | -78.78104 | 424 ft | 19 kts | 45° |
| 2026-05-07 02:09 | 35.88970 | -78.78003 | 419 ft | 12 kts | 68° |
| 2026-05-07 02:09 | 35.88999 | -78.77911 | 424 ft | 12 kts | 62° |
| 2026-05-07 02:10 | 35.89048 | -78.77839 | 413 ft | 9 kts | 45° |
| 2026-05-07 02:10 | 35.89099 | -78.77776 | 419 ft | 12 kts | 45° |
| 2026-05-07 02:10 | 35.89161 | -78.77699 | 424 ft | 13 kts | 45° |
| 2026-05-07 02:10 | 35.89224 | -78.77643 | 421 ft | 10 kts | 348° |
| 2026-05-07 02:11 | 35.89270 | -78.77690 | 424 ft | 8 kts | 316° |
| 2026-05-07 02:11 | 35.89293 | -78.77718 | 424 ft | 1 kts | 316° |
| 2026-05-07 02:11 | 35.89301 | -78.77727 | 421 ft | 1 kts | 315° |
| 2026-05-07 02:11 | 35.89301 | -78.77728 | 421 ft | 0 kts | 315° |
| 2026-05-07 02:12 | 35.89307 | -78.77734 | 424 ft | 5 kts | 315° |
| 2026-05-07 02:13 | 35.89355 | -78.77794 | 419 ft | 12 kts | 308° |
| 2026-05-07 02:13 | 35.89348 | -78.77842 | 417 ft | 0 kts | 224° |
| 2026-05-07 02:14 | 35.89338 | -78.77855 | 416 ft | 8 kts | 225° |
| 2026-05-07 02:14 | 35.89205 | -78.78018 | 423 ft | 58 kts | 225° |
| 2026-05-07 02:14 | 35.88739 | -78.78597 | 417 ft | 130 kts | 225° |
| 2026-05-07 02:14 | 35.87984 | -78.79517 | 735 ft | 165 kts | 224° |
| 2026-05-07 02:15 | 35.87135 | -78.80519 | 1580 ft | 174 kts | 223° |
| 2026-05-07 02:15 | 35.86274 | -78.81595 | 2317 ft | 184 kts | 226° |
| 2026-05-07 02:15 | 35.85412 | -78.82791 | 3137 ft | 190 kts | 227° |
| 2026-05-07 02:15 | 35.84460 | -78.84001 | 3877 ft | 201 kts | 225° |
| 2026-05-07 02:16 | 35.83443 | -78.85241 | 4613 ft | 210 kts | 225° |
| 2026-05-07 02:16 | 35.82395 | -78.86504 | 5433 ft | 211 kts | 225° |
| 2026-05-07 02:16 | 35.81310 | -78.87778 | 5925 ft | 219 kts | 225° |
| 2026-05-07 02:16 | 35.80148 | -78.89120 | 6069 ft | 237 kts | 224° |
| 2026-05-07 02:17 | 35.78936 | -78.90552 | 6075 ft | 245 kts | 225° |
| 2026-05-07 02:17 | 35.77720 | -78.92028 | 6075 ft | 245 kts | 229° |
| 2026-05-07 02:17 | 35.76936 | -78.93870 | 6061 ft | 248 kts | 256° |
| 2026-05-07 02:17 | 35.77065 | -78.95997 | 6063 ft | 258 kts | 285° |
| 2026-05-07 02:18 | 35.78094 | -78.97844 | 6054 ft | 269 kts | 309° |
| 2026-05-07 02:18 | 35.79478 | -78.99424 | 5980 ft | 271 kts | 310° |
| 2026-05-07 02:18 | 35.80858 | -79.00989 | 6004 ft | 270 kts | 310° |
| 2026-05-07 02:18 | 35.82236 | -79.02558 | 5990 ft | 269 kts | 311° |
| 2026-05-07 02:19 | 35.83607 | -79.04118 | 6209 ft | 265 kts | 310° |
| 2026-05-07 02:19 | 35.84954 | -79.05650 | 7125 ft | 269 kts | 312° |
| 2026-05-07 02:19 | 35.86397 | -79.07177 | 7998 ft | 275 kts | 314° |
| 2026-05-07 02:19 | 35.87881 | -79.08698 | 8859 ft | 280 kts | 315° |
| 2026-05-07 02:20 | 35.89380 | -79.10250 | 9690 ft | 282 kts | 314° |
| 2026-05-07 02:20 | 35.90881 | -79.11829 | 10310 ft | 292 kts | 314° |
| 2026-05-07 02:20 | 35.92461 | -79.13505 | 10617 ft | 309 kts | 314° |
| 2026-05-07 02:20 | 35.94143 | -79.15286 | 10900 ft | 325 kts | 315° |
| 2026-05-07 02:21 | 35.95880 | -79.17113 | 11495 ft | 328 kts | 315° |
| 2026-05-07 02:21 | 35.97616 | -79.18936 | 12093 ft | 327 kts | 315° |
| 2026-05-07 02:21 | 35.99355 | -79.20764 | 12162 ft | 327 kts | 315° |
| 2026-05-07 02:21 | 36.01056 | -79.22545 | 11830 ft | 314 kts | 315° |
| 2026-05-07 02:22 | 36.02681 | -79.24247 | 11913 ft | 305 kts | 314° |
| 2026-05-07 02:22 | 36.04084 | -79.26224 | 12163 ft | 311 kts | 297° |
| 2026-05-07 02:22 | 36.04859 | -79.28700 | 12534 ft | 312 kts | 287° |
| 2026-05-07 02:22 | 36.05592 | -79.31210 | 13176 ft | 316 kts | 288° |
| 2026-05-07 02:23 | 36.06361 | -79.33776 | 13875 ft | 320 kts | 288° |
| 2026-05-07 02:23 | 36.07352 | -79.36255 | 14606 ft | 328 kts | 303° |
| 2026-05-07 02:23 | 36.09089 | -79.38148 | 15360 ft | 342 kts | 322° |
| 2026-05-07 02:23 | 36.11157 | -79.39650 | 16041 ft | 346 kts | 323° |
| 2026-05-07 02:24 | 36.13249 | -79.41171 | 16675 ft | 351 kts | 324° |
| 2026-05-07 02:24 | 36.15381 | -79.42662 | 17313 ft | 355 kts | 324° |
| 2026-05-07 02:24 | 36.17564 | -79.44126 | 17881 ft | 360 kts | 326° |
| 2026-05-07 02:24 | 36.19800 | -79.45551 | 18480 ft | 365 kts | 328° |
| 2026-05-07 02:25 | 36.22145 | -79.46796 | 19043 ft | 368 kts | 331° |
| 2026-05-07 02:25 | 36.24547 | -79.47973 | 19494 ft | 372 kts | 331° |
| 2026-05-07 02:25 | 36.26958 | -79.49177 | 19944 ft | 376 kts | 330° |
| 2026-05-07 02:25 | 36.29366 | -79.50449 | 20536 ft | 377 kts | 330° |
| 2026-05-07 02:26 | 36.31785 | -79.51758 | 21024 ft | 381 kts | 329° |
| 2026-05-07 02:26 | 36.34228 | -79.53054 | 21482 ft | 384 kts | 330° |
| 2026-05-07 02:26 | 36.36697 | -79.54359 | 22034 ft | 387 kts | 330° |
| 2026-05-07 02:26 | 36.39178 | -79.55676 | 22585 ft | 389 kts | 329° |
| 2026-05-07 02:27 | 36.41685 | -79.57013 | 23057 ft | 393 kts | 329° |
| 2026-05-07 02:27 | 36.44208 | -79.58360 | 23493 ft | 397 kts | 329° |
| 2026-05-07 02:27 | 36.46761 | -79.59723 | 23973 ft | 400 kts | 329° |
| 2026-05-07 02:27 | 36.49325 | -79.61087 | 24425 ft | 402 kts | 329° |
| 2026-05-07 02:28 | 36.51905 | -79.62464 | 24916 ft | 403 kts | 329° |
| 2026-05-07 02:28 | 36.54486 | -79.63843 | 25395 ft | 405 kts | 329° |
| 2026-05-07 02:28 | 36.57040 | -79.65207 | 25960 ft | 403 kts | 329° |
| 2026-05-07 02:28 | 36.59639 | -79.66598 | 26606 ft | 400 kts | 328° |
| 2026-05-07 02:29 | 36.62176 | -79.67955 | 27241 ft | 396 kts | 328° |
| 2026-05-07 02:29 | 36.64665 | -79.69291 | 27774 ft | 394 kts | 328° |
| 2026-05-07 02:29 | 36.67183 | -79.70646 | 28265 ft | 393 kts | 327° |
| 2026-05-07 02:29 | 36.69683 | -79.71988 | 28860 ft | 390 kts | 327° |
| 2026-05-07 02:30 | 36.72161 | -79.73317 | 29457 ft | 386 kts | 327° |
| 2026-05-07 02:30 | 36.74623 | -79.74635 | 29937 ft | 384 kts | 326° |
| 2026-05-07 02:30 | 36.77072 | -79.75952 | 30338 ft | 383 kts | 326° |
| 2026-05-07 02:30 | 36.79517 | -79.77266 | 30871 ft | 380 kts | 326° |
| 2026-05-07 02:31 | 36.81889 | -79.78531 | 30992 ft | 365 kts | 325° |
| 2026-05-07 02:31 | 36.84194 | -79.79770 | 31003 ft | 358 kts | 324° |
| 2026-05-07 02:31 | 36.88810 | -79.82287 | 31015 ft | 364 kts | 324° |
| 2026-05-07 02:32 | 36.93455 | -79.84793 | 31032 ft | 364 kts | 324° |
| 2026-05-07 02:32 | 36.98105 | -79.87306 | 30953 ft | 364 kts | 324° |
| 2026-05-07 02:33 | 37.02767 | -79.89831 | 30959 ft | 365 kts | 324° |
| 2026-05-07 02:33 | 37.07429 | -79.92360 | 30967 ft | 366 kts | 324° |
| 2026-05-07 02:34 | 37.12101 | -79.94892 | 30935 ft | 366 kts | 323° |
| 2026-05-07 02:34 | 37.16770 | -79.97442 | 30958 ft | 366 kts | 323° |
| 2026-05-07 02:35 | 37.21436 | -79.99984 | 30989 ft | 367 kts | 323° |
| 2026-05-07 02:35 | 37.26136 | -80.02543 | 30958 ft | 370 kts | 323° |
| 2026-05-07 02:36 | 37.30842 | -80.05107 | 30951 ft | 367 kts | 323° |
| 2026-05-07 02:36 | 37.35813 | -80.07088 | 30958 ft | 397 kts | 340° |
| 2026-05-07 02:37 | 37.38626 | -80.07262 | 30998 ft | 408 kts | 344° |
| 2026-05-07 02:37 | 37.41473 | -80.07309 | 30945 ft | 409 kts | 345° |
| 2026-05-07 02:37 | 37.47176 | -80.07317 | 30965 ft | 410 kts | 345° |
| 2026-05-07 02:38 | 37.52895 | -80.07347 | 30967 ft | 411 kts | 345° |
| 2026-05-07 02:38 | 37.58588 | -80.07377 | 30977 ft | 412 kts | 346° |
| 2026-05-07 02:39 | 37.64333 | -80.07354 | 31031 ft | 409 kts | 345° |
| 2026-05-07 02:39 | 37.70058 | -80.07428 | 30989 ft | 412 kts | 345° |
| 2026-05-07 02:40 | 37.74834 | -80.07466 | 30990 ft | 413 kts | 345° |
| 2026-05-07 02:40 | 37.80583 | -80.07502 | 30991 ft | 412 kts | 345° |
| 2026-05-07 02:41 | 37.86319 | -80.07532 | 31000 ft | 413 kts | 345° |
| 2026-05-07 02:41 | 37.92059 | -80.07562 | 31022 ft | 413 kts | 345° |
| 2026-05-07 02:42 | 37.97807 | -80.07571 | 30993 ft | 413 kts | 345° |
| 2026-05-07 02:42 | 38.03553 | -80.07577 | 30996 ft | 412 kts | 345° |
| 2026-05-07 02:43 | 38.09284 | -80.07655 | 30981 ft | 411 kts | 343° |
| 2026-05-07 02:43 | 38.12188 | -80.07520 | 31051 ft | 423 kts | 351° |
| 2026-05-07 02:43 | 38.15120 | -80.07091 | 30965 ft | 424 kts | 352° |
| 2026-05-07 02:44 | 38.17986 | -80.07039 | 31042 ft | 405 kts | 341° |
| 2026-05-07 02:44 | 38.20785 | -80.07350 | 30972 ft | 404 kts | 340° |
| 2026-05-07 02:44 | 38.26445 | -80.07708 | 30987 ft | 411 kts | 344° |
| 2026-05-07 02:45 | 38.32179 | -80.07770 | 31009 ft | 412 kts | 345° |
| 2026-05-07 02:45 | 38.37889 | -80.07788 | 30983 ft | 413 kts | 345° |
| 2026-05-07 02:46 | 38.43635 | -80.07794 | 30962 ft | 412 kts | 344° |
| 2026-05-07 02:46 | 38.49370 | -80.07836 | 31006 ft | 413 kts | 344° |
| 2026-05-07 02:47 | 38.55123 | -80.07846 | 31002 ft | 413 kts | 344° |
| 2026-05-07 02:47 | 38.60845 | -80.07879 | 31017 ft | 412 kts | 343° |
| 2026-05-07 02:48 | 38.66597 | -80.07915 | 30999 ft | 412 kts | 344° |
| 2026-05-07 02:48 | 38.72327 | -80.07942 | 31015 ft | 412 kts | 343° |
| 2026-05-07 02:49 | 38.78068 | -80.07993 | 30974 ft | 410 kts | 343° |
| 2026-05-07 02:49 | 38.83791 | -80.08058 | 30989 ft | 412 kts | 343° |
| 2026-05-07 02:50 | 38.89531 | -80.08064 | 30983 ft | 415 kts | 345° |
| 2026-05-07 02:50 | 38.92426 | -80.07684 | 30994 ft | 435 kts | 355° |
| 2026-05-07 02:50 | 38.95444 | -80.06605 | 31025 ft | 456 kts | 6° |
| 2026-05-07 02:51 | 38.98378 | -80.04873 | 31023 ft | 472 kts | 15° |
| 2026-05-07 02:51 | 39.01253 | -80.02788 | 30963 ft | 476 kts | 17° |
| 2026-05-07 02:51 | 39.07021 | -79.98877 | 30978 ft | 468 kts | 12° |
| 2026-05-07 02:52 | 39.12846 | -79.95287 | 31000 ft | 463 kts | 11° |
| 2026-05-07 02:52 | 39.18694 | -79.91767 | 30988 ft | 464 kts | 11° |
| 2026-05-07 02:53 | 39.24547 | -79.88190 | 30996 ft | 467 kts | 11° |
| 2026-05-07 02:53 | 39.30399 | -79.84589 | 30991 ft | 467 kts | 11° |
| 2026-05-07 02:54 | 39.36271 | -79.81007 | 30989 ft | 467 kts | 11° |
| 2026-05-07 02:54 | 39.42147 | -79.77387 | 30998 ft | 467 kts | 11° |
| 2026-05-07 02:55 | 39.48006 | -79.73782 | 30501 ft | 471 kts | 11° |
| 2026-05-07 02:55 | 39.50963 | -79.71954 | 30034 ft | 474 kts | 11° |
| 2026-05-07 02:55 | 39.53952 | -79.70111 | 29344 ft | 476 kts | 12° |
| 2026-05-07 02:56 | 39.56935 | -79.68260 | 28685 ft | 474 kts | 12° |
| 2026-05-07 02:56 | 39.59910 | -79.66415 | 28071 ft | 471 kts | 12° |
| 2026-05-07 02:56 | 39.62859 | -79.64586 | 27451 ft | 469 kts | 12° |
| 2026-05-07 02:56 | 39.65802 | -79.62763 | 26853 ft | 468 kts | 13° |
| 2026-05-07 02:57 | 39.68747 | -79.60934 | 26252 ft | 469 kts | 13° |
| 2026-05-07 02:57 | 39.71693 | -79.59107 | 25628 ft | 470 kts | 13° |
| 2026-05-07 02:57 | 39.74642 | -79.57281 | 25043 ft | 469 kts | 14° |
| 2026-05-07 02:57 | 39.77536 | -79.55478 | 24449 ft | 465 kts | 14° |
| 2026-05-07 02:58 | 39.80480 | -79.53644 | 23854 ft | 459 kts | 14° |
| 2026-05-07 02:58 | 39.83338 | -79.51870 | 23281 ft | 453 kts | 14° |
| 2026-05-07 02:58 | 39.86162 | -79.50110 | 22717 ft | 446 kts | 15° |
| 2026-05-07 02:58 | 39.88907 | -79.48403 | 22172 ft | 440 kts | 14° |
| 2026-05-07 02:59 | 39.91698 | -79.46710 | 21619 ft | 434 kts | 14° |
| 2026-05-07 02:59 | 39.94385 | -79.45062 | 21040 ft | 430 kts | 15° |
| 2026-05-07 02:59 | 39.97091 | -79.43528 | 20284 ft | 416 kts | 5° |
| 2026-05-07 02:59 | 39.99860 | -79.43172 | 19200 ft | 388 kts | 342° |
| 2026-05-07 03:00 | 40.02314 | -79.44200 | 18216 ft | 359 kts | 320° |
| 2026-05-07 03:00 | 40.04055 | -79.46327 | 17370 ft | 334 kts | 299° |
| 2026-05-07 03:00 | 40.05348 | -79.48810 | 16469 ft | 331 kts | 297° |
| 2026-05-07 03:00 | 40.06713 | -79.51252 | 15530 ft | 334 kts | 301° |
| 2026-05-07 03:01 | 40.08181 | -79.53606 | 14600 ft | 335 kts | 302° |
| 2026-05-07 03:01 | 40.09696 | -79.55908 | 13706 ft | 329 kts | 303° |
| 2026-05-07 03:01 | 40.11174 | -79.58127 | 12852 ft | 318 kts | 303° |
| 2026-05-07 03:01 | 40.12578 | -79.60264 | 12173 ft | 299 kts | 302° |
| 2026-05-07 03:02 | 40.13878 | -79.62266 | 11634 ft | 279 kts | 300° |
| 2026-05-07 03:02 | 40.15067 | -79.64194 | 11156 ft | 265 kts | 300° |
| 2026-05-07 03:02 | 40.16189 | -79.66047 | 10875 ft | 259 kts | 300° |
| 2026-05-07 03:02 | 40.17311 | -79.67927 | 10582 ft | 265 kts | 301° |
| 2026-05-07 03:03 | 40.18469 | -79.69820 | 10310 ft | 266 kts | 302° |
| 2026-05-07 03:03 | 40.19528 | -79.71759 | 10183 ft | 258 kts | 291° |
| 2026-05-07 03:03 | 40.20280 | -79.73885 | 10122 ft | 259 kts | 289° |
| 2026-05-07 03:03 | 40.21023 | -79.76054 | 10003 ft | 259 kts | 289° |
| 2026-05-07 03:04 | 40.21760 | -79.78206 | 10025 ft | 259 kts | 289° |
| 2026-05-07 03:04 | 40.22479 | -79.80348 | 10016 ft | 263 kts | 289° |
| 2026-05-07 03:04 | 40.23240 | -79.82540 | 10023 ft | 261 kts | 291° |
| 2026-05-07 03:04 | 40.24131 | -79.84627 | 10043 ft | 264 kts | 296° |
| 2026-05-07 03:05 | 40.25086 | -79.86685 | 10023 ft | 264 kts | 295° |
| 2026-05-07 03:05 | 40.26025 | -79.88749 | 10024 ft | 264 kts | 295° |
| 2026-05-07 03:05 | 40.26946 | -79.90816 | 10023 ft | 263 kts | 295° |
| 2026-05-07 03:05 | 40.27851 | -79.92866 | 10026 ft | 263 kts | 294° |
| 2026-05-07 03:06 | 40.28757 | -79.94957 | 10012 ft | 264 kts | 294° |
| 2026-05-07 03:06 | 40.29650 | -79.97057 | 10022 ft | 262 kts | 294° |
| 2026-05-07 03:06 | 40.30541 | -79.99148 | 10024 ft | 264 kts | 294° |
| 2026-05-07 03:06 | 40.31452 | -80.01235 | 10023 ft | 262 kts | 294° |
| 2026-05-07 03:07 | 40.32355 | -80.03306 | 10032 ft | 262 kts | 295° |
| 2026-05-07 03:07 | 40.33254 | -80.05394 | 9973 ft | 264 kts | 294° |
| 2026-05-07 03:07 | 40.34152 | -80.07491 | 9806 ft | 264 kts | 295° |
| 2026-05-07 03:07 | 40.35065 | -80.09602 | 9593 ft | 269 kts | 295° |
| 2026-05-07 03:08 | 40.35983 | -80.11729 | 9401 ft | 264 kts | 295° |
| 2026-05-07 03:08 | 40.36885 | -80.13808 | 9188 ft | 263 kts | 296° |
| 2026-05-07 03:08 | 40.37793 | -80.15907 | 8957 ft | 266 kts | 296° |
| 2026-05-07 03:08 | 40.38706 | -80.18004 | 8699 ft | 266 kts | 297° |
| 2026-05-07 03:09 | 40.39638 | -80.20122 | 8454 ft | 267 kts | 296° |
| 2026-05-07 03:09 | 40.40214 | -80.22377 | 8178 ft | 261 kts | 275° |
| 2026-05-07 03:09 | 40.40316 | -80.24776 | 7803 ft | 265 kts | 272° |
| 2026-05-07 03:09 | 40.40372 | -80.27195 | 7414 ft | 263 kts | 271° |
| 2026-05-07 03:10 | 40.40426 | -80.29588 | 7052 ft | 259 kts | 272° |
| 2026-05-07 03:10 | 40.40502 | -80.31945 | 6681 ft | 258 kts | 273° |
| 2026-05-07 03:10 | 40.40578 | -80.34288 | 6291 ft | 257 kts | 273° |
| 2026-05-07 03:10 | 40.40657 | -80.36624 | 5978 ft | 254 kts | 274° |
| 2026-05-07 03:11 | 40.40794 | -80.38898 | 6050 ft | 252 kts | 283° |
| 2026-05-07 03:11 | 40.41255 | -80.41128 | 6065 ft | 255 kts | 280° |
| 2026-05-07 03:11 | 40.41523 | -80.43467 | 5846 ft | 262 kts | 279° |
| 2026-05-07 03:11 | 40.41792 | -80.45808 | 5596 ft | 256 kts | 278° |
| 2026-05-07 03:12 | 40.41978 | -80.48109 | 5331 ft | 250 kts | 277° |
| 2026-05-07 03:12 | 40.42169 | -80.50314 | 5077 ft | 243 kts | 281° |
| 2026-05-07 03:12 | 40.42884 | -80.52255 | 4814 ft | 237 kts | 313° |
| 2026-05-07 03:12 | 40.44254 | -80.53309 | 4570 ft | 227 kts | 346° |
| 2026-05-07 03:13 | 40.45776 | -80.53134 | 4325 ft | 219 kts | 19° |
| 2026-05-07 03:13 | 40.46992 | -80.52022 | 4071 ft | 213 kts | 51° |
| 2026-05-07 03:13 | 40.47666 | -80.50343 | 3822 ft | 203 kts | 62° |
| 2026-05-07 03:13 | 40.48293 | -80.48719 | 3564 ft | 196 kts | 60° |
| 2026-05-07 03:14 | 40.48913 | -80.47191 | 3357 ft | 181 kts | 60° |
| 2026-05-07 03:14 | 40.49203 | -80.45699 | 3306 ft | 163 kts | 89° |
| 2026-05-07 03:14 | 40.49106 | -80.42828 | 3277 ft | 157 kts | 88° |
| 2026-05-07 03:15 | 40.49084 | -80.41426 | 3278 ft | 151 kts | 91° |
| 2026-05-07 03:15 | 40.49038 | -80.40051 | 3272 ft | 150 kts | 90° |
| 2026-05-07 03:15 | 40.49010 | -80.38667 | 3154 ft | 156 kts | 90° |
| 2026-05-07 03:15 | 40.48976 | -80.37254 | 2942 ft | 152 kts | 90° |
| 2026-05-07 03:16 | 40.48940 | -80.35885 | 2736 ft | 149 kts | 90° |
| 2026-05-07 03:16 | 40.48910 | -80.34538 | 2562 ft | 146 kts | 90° |
| 2026-05-07 03:16 | 40.48881 | -80.33217 | 2425 ft | 147 kts | 90° |
| 2026-05-07 03:16 | 40.48852 | -80.31880 | 2226 ft | 146 kts | 89° |
| 2026-05-07 03:17 | 40.48815 | -80.30523 | 2042 ft | 146 kts | 91° |
| 2026-05-07 03:17 | 40.48782 | -80.29190 | 1820 ft | 146 kts | 89° |
| 2026-05-07 03:17 | 40.48748 | -80.27877 | 1609 ft | 145 kts | 91° |
| 2026-05-07 03:17 | 40.48713 | -80.26553 | 1404 ft | 144 kts | 90° |
| 2026-05-07 03:18 | 40.48676 | -80.25249 | 1209 ft | 141 kts | 90° |
| 2026-05-07 03:18 | 40.48645 | -80.24047 | 1150 ft | 117 kts | 91° |
| 2026-05-07 03:18 | 40.48623 | -80.23186 | 1147 ft | 73 kts | 92° |
| 2026-05-07 03:18 | 40.48611 | -80.22668 | 1150 ft | 42 kts | 91° |
| 2026-05-07 03:19 | 40.48658 | -80.22388 | 1150 ft | 25 kts | 54° |
| 2026-05-07 03:19 | 40.48723 | -80.22327 | 1151 ft | 0 kts | 36° |
| 2026-05-07 03:19 | 40.48731 | -80.22319 | 1151 ft | 3 kts | 36° |
| 2026-05-07 03:19 | 40.48734 | -80.22317 | 1151 ft | 1 kts | 35° |
| 2026-05-07 03:20 | 40.48759 | -80.22321 | 1152 ft | 6 kts | 313° |
| 2026-05-07 03:20 | 40.48765 | -80.22407 | 1151 ft | 14 kts | 272° |
| 2026-05-07 03:20 | 40.48770 | -80.22570 | 1152 ft | 22 kts | 272° |
| 2026-05-07 03:20 | 40.48777 | -80.22795 | 1152 ft | 26 kts | 272° |
| 2026-05-07 03:21 | 40.48782 | -80.23041 | 1152 ft | 29 kts | 271° |
| 2026-05-07 03:21 | 40.48789 | -80.23313 | 1151 ft | 30 kts | 271° |
| 2026-05-07 03:21 | 40.48797 | -80.23595 | 1150 ft | 31 kts | 273° |
| 2026-05-07 03:21 | 40.48803 | -80.23844 | 1151 ft | 25 kts | 272° |
| 2026-05-07 03:22 | 40.48823 | -80.24000 | 1152 ft | 13 kts | 326° |
| 2026-05-07 03:22 | 40.48905 | -80.24004 | 1150 ft | 14 kts | 1° |
| 2026-05-07 03:22 | 40.49010 | -80.24000 | 1150 ft | 16 kts | 1° |
| 2026-05-07 03:22 | 40.49121 | -80.23994 | 1152 ft | 16 kts | 1° |
| 2026-05-07 03:23 | 40.49204 | -80.24009 | 1152 ft | 4 kts | 302° |
| 2026-05-07 03:23 | 40.49207 | -80.24049 | 1153 ft | 6 kts | 270° |
| 2026-05-07 03:23 | 40.49210 | -80.24143 | 1151 ft | 15 kts | 272° |
| 2026-05-07 03:23 | 40.49213 | -80.24299 | 1152 ft | 18 kts | 271° |
| 2026-05-07 03:24 | 40.49256 | -80.24433 | 1148 ft | 13 kts | 311° |
| 2026-05-07 03:24 | 40.49325 | -80.24514 | 1147 ft | 13 kts | 317° |
| 2026-05-07 03:24 | 40.49387 | -80.24589 | 1151 ft | 11 kts | 316° |
| 2026-05-07 03:24 | 40.49413 | -80.24603 | 1153 ft | 1 kts | 28° |
| 2026-05-07 03:25 | 40.49416 | -80.24595 | 1153 ft | 2 kts | 86° |
| 2026-05-07 03:25 | 40.49420 | -80.24562 | 1154 ft | 5 kts | 54° |
| 2026-05-07 03:25 | 40.49438 | -80.24538 | 1155 ft | 3 kts | 44° |
| 2026-05-07 03:25 | 40.49440 | -80.24534 | 1155 ft | 0 kts | 45° |